sensor_id;sensor_type;location;lat;lon;timestamp;P1;durP1;ratioP1;P2;durP2;ratioP2
40599;SDS011;26309;50.924;4.754;2023-10-13T00:00:33;36.53;;;24.85;;
40599;SDS011;26309;50.924;4.754;2023-10-13T00:03:05;36.47;;;24.77;;
40599;SDS011;26309;50.924;4.754;2023-10-13T00:05:32;35.28;;;24.35;;
40599;SDS011;26309;50.924;4.754;2023-10-13T00:07:59;36.78;;;25.50;;
40599;SDS011;26309;50.924;4.754;2023-10-13T00:10:33;41.63;;;25.60;;
40599;SDS011;26309;50.924;4.754;2023-10-13T00:12:59;38.17;;;26.38;;
40599;SDS011;26309;50.924;4.754;2023-10-13T00:15:47;37.08;;;25.58;;
40599;SDS011;26309;50.924;4.754;2023-10-13T00:18:26;38.17;;;25.50;;
40599;SDS011;26309;50.924;4.754;2023-10-13T00:20:59;41.95;;;26.73;;
40599;SDS011;26309;50.924;4.754;2023-10-13T00:23:25;49.70;;;28.40;;
40599;SDS011;26309;50.924;4.754;2023-10-13T00:25:57;41.33;;;25.83;;
40599;SDS011;26309;50.924;4.754;2023-10-13T00:28:28;45.53;;;27.55;;
40599;SDS011;26309;50.924;4.754;2023-10-13T00:31:12;40.75;;;24.90;;
40599;SDS011;26309;50.924;4.754;2023-10-13T00:33:39;40.38;;;25.63;;
40599;SDS011;26309;50.924;4.754;2023-10-13T00:36:12;44.03;;;27.05;;
40599;SDS011;26309;50.924;4.754;2023-10-13T00:38:44;42.60;;;26.52;;
40599;SDS011;26309;50.924;4.754;2023-10-13T00:41:17;38.80;;;25.65;;
40599;SDS011;26309;50.924;4.754;2023-10-13T00:43:59;39.55;;;25.50;;
40599;SDS011;26309;50.924;4.754;2023-10-13T00:46:34;50.50;;;25.77;;
40599;SDS011;26309;50.924;4.754;2023-10-13T00:49:03;42.65;;;25.75;;
40599;SDS011;26309;50.924;4.754;2023-10-13T00:51:30;39.40;;;25.10;;
40599;SDS011;26309;50.924;4.754;2023-10-13T00:53:58;42.13;;;25.20;;
40599;SDS011;26309;50.924;4.754;2023-10-13T00:56:27;37.45;;;24.30;;
40599;SDS011;26309;50.924;4.754;2023-10-13T00:58:56;34.05;;;24.23;;
40599;SDS011;26309;50.924;4.754;2023-10-13T01:01:27;39.03;;;25.13;;
40599;SDS011;26309;50.924;4.754;2023-10-13T01:03:58;40.28;;;24.30;;
40599;SDS011;26309;50.924;4.754;2023-10-13T01:06:25;39.70;;;25.00;;
40599;SDS011;26309;50.924;4.754;2023-10-13T01:08:58;36.60;;;24.38;;
40599;SDS011;26309;50.924;4.754;2023-10-13T01:11:45;39.75;;;24.00;;
40599;SDS011;26309;50.924;4.754;2023-10-13T01:14:16;36.95;;;23.45;;
40599;SDS011;26309;50.924;4.754;2023-10-13T01:16:43;37.47;;;23.25;;
40599;SDS011;26309;50.924;4.754;2023-10-13T01:19:11;36.70;;;22.48;;
40599;SDS011;26309;50.924;4.754;2023-10-13T01:21:45;34.20;;;22.13;;
40599;SDS011;26309;50.924;4.754;2023-10-13T01:24:12;42.50;;;23.63;;
40599;SDS011;26309;50.924;4.754;2023-10-13T01:26:44;36.45;;;22.33;;
40599;SDS011;26309;50.924;4.754;2023-10-13T01:29:15;35.53;;;23.30;;
40599;SDS011;26309;50.924;4.754;2023-10-13T01:31:41;37.17;;;22.38;;
40599;SDS011;26309;50.924;4.754;2023-10-13T01:34:16;34.13;;;22.38;;
40599;SDS011;26309;50.924;4.754;2023-10-13T01:36:53;33.60;;;22.25;;
40599;SDS011;26309;50.924;4.754;2023-10-13T01:39:20;33.72;;;21.55;;
40599;SDS011;26309;50.924;4.754;2023-10-13T01:41:51;33.03;;;22.63;;
40599;SDS011;26309;50.924;4.754;2023-10-13T01:44:27;31.33;;;22.40;;
40599;SDS011;26309;50.924;4.754;2023-10-13T01:46:58;32.35;;;22.00;;
40599;SDS011;26309;50.924;4.754;2023-10-13T01:49:25;40.38;;;21.67;;
40599;SDS011;26309;50.924;4.754;2023-10-13T01:51:51;32.50;;;21.20;;
40599;SDS011;26309;50.924;4.754;2023-10-13T01:54:17;30.42;;;20.48;;
40599;SDS011;26309;50.924;4.754;2023-10-13T01:56:46;38.10;;;20.75;;
40599;SDS011;26309;50.924;4.754;2023-10-13T01:59:14;33.05;;;20.17;;
40599;SDS011;26309;50.924;4.754;2023-10-13T02:01:40;32.47;;;20.17;;
40599;SDS011;26309;50.924;4.754;2023-10-13T02:04:07;31.05;;;20.48;;
40599;SDS011;26309;50.924;4.754;2023-10-13T02:06:38;33.00;;;20.15;;
40599;SDS011;26309;50.924;4.754;2023-10-13T02:09:05;38.42;;;20.52;;
40599;SDS011;26309;50.924;4.754;2023-10-13T02:11:39;29.63;;;19.88;;
40599;SDS011;26309;50.924;4.754;2023-10-13T02:14:07;33.08;;;20.92;;
40599;SDS011;26309;50.924;4.754;2023-10-13T02:16:37;31.92;;;19.10;;
40599;SDS011;26309;50.924;4.754;2023-10-13T02:19:04;32.08;;;20.02;;
40599;SDS011;26309;50.924;4.754;2023-10-13T02:21:30;29.70;;;18.58;;
40599;SDS011;26309;50.924;4.754;2023-10-13T02:23:59;35.58;;;19.30;;
40599;SDS011;26309;50.924;4.754;2023-10-13T02:26:26;30.77;;;18.90;;
40599;SDS011;26309;50.924;4.754;2023-10-13T02:28:59;33.30;;;20.40;;
40599;SDS011;26309;50.924;4.754;2023-10-13T02:31:30;31.52;;;19.67;;
40599;SDS011;26309;50.924;4.754;2023-10-13T02:33:56;29.85;;;19.77;;
40599;SDS011;26309;50.924;4.754;2023-10-13T02:36:22;30.73;;;19.10;;
40599;SDS011;26309;50.924;4.754;2023-10-13T02:39:01;29.70;;;19.42;;
40599;SDS011;26309;50.924;4.754;2023-10-13T02:41:34;32.88;;;19.55;;
40599;SDS011;26309;50.924;4.754;2023-10-13T02:44:10;33.15;;;19.35;;
40599;SDS011;26309;50.924;4.754;2023-10-13T02:46:45;30.95;;;19.45;;
40599;SDS011;26309;50.924;4.754;2023-10-13T02:49:15;30.88;;;19.13;;
40599;SDS011;26309;50.924;4.754;2023-10-13T02:51:45;27.83;;;18.77;;
40599;SDS011;26309;50.924;4.754;2023-10-13T02:54:11;26.92;;;18.50;;
40599;SDS011;26309;50.924;4.754;2023-10-13T02:56:38;25.25;;;17.17;;
40599;SDS011;26309;50.924;4.754;2023-10-13T02:59:14;31.83;;;17.17;;
40599;SDS011;26309;50.924;4.754;2023-10-13T03:01:44;25.77;;;16.42;;
40599;SDS011;26309;50.924;4.754;2023-10-13T03:04:10;26.13;;;16.95;;
40599;SDS011;26309;50.924;4.754;2023-10-13T03:06:38;27.98;;;17.33;;
40599;SDS011;26309;50.924;4.754;2023-10-13T03:09:08;32.63;;;17.42;;
40599;SDS011;26309;50.924;4.754;2023-10-13T03:11:44;27.08;;;15.93;;
40599;SDS011;26309;50.924;4.754;2023-10-13T03:14:14;29.25;;;16.98;;
40599;SDS011;26309;50.924;4.754;2023-10-13T03:17:00;27.38;;;15.68;;
40599;SDS011;26309;50.924;4.754;2023-10-13T03:19:43;33.92;;;17.42;;
40599;SDS011;26309;50.924;4.754;2023-10-13T03:22:16;31.85;;;16.67;;
40599;SDS011;26309;50.924;4.754;2023-10-13T03:24:55;25.77;;;14.95;;
40599;SDS011;26309;50.924;4.754;2023-10-13T03:27:25;26.63;;;15.25;;
40599;SDS011;26309;50.924;4.754;2023-10-13T03:30:05;26.45;;;15.85;;
40599;SDS011;26309;50.924;4.754;2023-10-13T03:32:39;28.17;;;15.15;;
40599;SDS011;26309;50.924;4.754;2023-10-13T03:35:09;30.05;;;15.82;;
40599;SDS011;26309;50.924;4.754;2023-10-13T03:37:49;24.65;;;15.00;;
40599;SDS011;26309;50.924;4.754;2023-10-13T03:40:19;27.42;;;14.80;;
40599;SDS011;26309;50.924;4.754;2023-10-13T03:42:55;29.95;;;15.00;;
40599;SDS011;26309;50.924;4.754;2023-10-13T03:45:35;25.73;;;14.30;;
40599;SDS011;26309;50.924;4.754;2023-10-13T03:48:07;24.23;;;14.88;;
40599;SDS011;26309;50.924;4.754;2023-10-13T03:51:00;24.38;;;14.18;;
40599;SDS011;26309;50.924;4.754;2023-10-13T03:53:36;20.25;;;14.15;;
40599;SDS011;26309;50.924;4.754;2023-10-13T03:56:19;24.75;;;13.43;;
40599;SDS011;26309;50.924;4.754;2023-10-13T03:58:52;24.00;;;13.48;;
40599;SDS011;26309;50.924;4.754;2023-10-13T04:01:19;22.92;;;13.30;;
40599;SDS011;26309;50.924;4.754;2023-10-13T04:04:00;27.95;;;13.60;;
40599;SDS011;26309;50.924;4.754;2023-10-13T04:06:32;22.13;;;13.23;;
40599;SDS011;26309;50.924;4.754;2023-10-13T04:09:14;21.02;;;12.90;;
40599;SDS011;26309;50.924;4.754;2023-10-13T04:11:56;20.08;;;12.90;;
40599;SDS011;26309;50.924;4.754;2023-10-13T04:14:31;26.73;;;12.57;;
40599;SDS011;26309;50.924;4.754;2023-10-13T04:17:04;21.83;;;12.25;;
40599;SDS011;26309;50.924;4.754;2023-10-13T04:19:39;21.25;;;12.43;;
40599;SDS011;26309;50.924;4.754;2023-10-13T04:22:25;23.33;;;12.00;;
40599;SDS011;26309;50.924;4.754;2023-10-13T04:25:29;22.65;;;11.15;;
40599;SDS011;26309;50.924;4.754;2023-10-13T04:28:05;25.33;;;11.10;;
40599;SDS011;26309;50.924;4.754;2023-10-13T04:33:26;21.02;;;9.75;;
40599;SDS011;26309;50.924;4.754;2023-10-13T04:36:02;18.30;;;9.70;;
40599;SDS011;26309;50.924;4.754;2023-10-13T04:38:53;22.85;;;9.95;;
40599;SDS011;26309;50.924;4.754;2023-10-13T04:41:24;18.73;;;9.48;;
40599;SDS011;26309;50.924;4.754;2023-10-13T04:43:57;21.38;;;9.30;;
40599;SDS011;26309;50.924;4.754;2023-10-13T04:46:44;15.52;;;8.63;;
40599;SDS011;26309;50.924;4.754;2023-10-13T04:49:13;21.50;;;8.30;;
40599;SDS011;26309;50.924;4.754;2023-10-13T04:54:27;16.75;;;8.20;;
40599;SDS011;26309;50.924;4.754;2023-10-13T04:57:15;18.02;;;8.70;;
40599;SDS011;26309;50.924;4.754;2023-10-13T04:59:57;17.30;;;7.65;;
40599;SDS011;26309;50.924;4.754;2023-10-13T05:02:39;16.27;;;8.27;;
40599;SDS011;26309;50.924;4.754;2023-10-13T05:05:10;20.45;;;8.18;;
40599;SDS011;26309;50.924;4.754;2023-10-13T05:07:47;17.05;;;8.20;;
40599;SDS011;26309;50.924;4.754;2023-10-13T05:10:32;21.08;;;8.85;;
40599;SDS011;26309;50.924;4.754;2023-10-13T05:13:18;21.48;;;8.23;;
40599;SDS011;26309;50.924;4.754;2023-10-13T05:16:03;16.98;;;6.80;;
40599;SDS011;26309;50.924;4.754;2023-10-13T05:18:48;15.55;;;7.50;;
40599;SDS011;26309;50.924;4.754;2023-10-13T05:21:33;19.75;;;8.43;;
40599;SDS011;26309;50.924;4.754;2023-10-13T05:24:17;19.30;;;8.40;;
40599;SDS011;26309;50.924;4.754;2023-10-13T05:27:01;19.33;;;8.48;;
40599;SDS011;26309;50.924;4.754;2023-10-13T05:29:47;23.45;;;8.55;;
40599;SDS011;26309;50.924;4.754;2023-10-13T05:32:31;15.38;;;7.93;;
40599;SDS011;26309;50.924;4.754;2023-10-13T05:35:16;19.48;;;7.75;;
40599;SDS011;26309;50.924;4.754;2023-10-13T05:38:01;19.88;;;8.20;;
40599;SDS011;26309;50.924;4.754;2023-10-13T05:41:02;20.65;;;8.55;;
40599;SDS011;26309;50.924;4.754;2023-10-13T05:43:48;21.27;;;8.60;;
40599;SDS011;26309;50.924;4.754;2023-10-13T05:46:33;20.02;;;8.40;;
40599;SDS011;26309;50.924;4.754;2023-10-13T05:49:04;23.73;;;8.55;;
40599;SDS011;26309;50.924;4.754;2023-10-13T05:51:35;19.52;;;8.57;;
40599;SDS011;26309;50.924;4.754;2023-10-13T05:54:05;22.00;;;8.48;;
40599;SDS011;26309;50.924;4.754;2023-10-13T05:56:35;21.17;;;8.98;;
40599;SDS011;26309;50.924;4.754;2023-10-13T05:59:20;23.40;;;8.50;;
40599;SDS011;26309;50.924;4.754;2023-10-13T06:02:04;21.00;;;9.10;;
40599;SDS011;26309;50.924;4.754;2023-10-13T06:04:49;22.73;;;8.43;;
40599;SDS011;26309;50.924;4.754;2023-10-13T06:07:33;21.55;;;8.43;;
40599;SDS011;26309;50.924;4.754;2023-10-13T06:10:17;20.08;;;8.35;;
40599;SDS011;26309;50.924;4.754;2023-10-13T06:13:02;22.40;;;8.30;;
40599;SDS011;26309;50.924;4.754;2023-10-13T06:15:49;18.17;;;8.38;;
40599;SDS011;26309;50.924;4.754;2023-10-13T06:18:33;21.92;;;8.00;;
40599;SDS011;26309;50.924;4.754;2023-10-13T06:21:19;22.55;;;7.90;;
40599;SDS011;26309;50.924;4.754;2023-10-13T06:24:05;19.15;;;8.25;;
40599;SDS011;26309;50.924;4.754;2023-10-13T06:26:50;18.10;;;7.68;;
40599;SDS011;26309;50.924;4.754;2023-10-13T06:29:38;19.63;;;7.57;;
40599;SDS011;26309;50.924;4.754;2023-10-13T06:32:04;18.55;;;8.38;;
40599;SDS011;26309;50.924;4.754;2023-10-13T06:34:36;23.42;;;8.23;;
40599;SDS011;26309;50.924;4.754;2023-10-13T06:37:12;20.67;;;7.72;;
40599;SDS011;26309;50.924;4.754;2023-10-13T06:39:55;15.10;;;7.35;;
40599;SDS011;26309;50.924;4.754;2023-10-13T06:42:28;25.20;;;7.53;;
40599;SDS011;26309;50.924;4.754;2023-10-13T06:44:54;17.63;;;7.93;;
40599;SDS011;26309;50.924;4.754;2023-10-13T06:47:21;19.60;;;8.07;;
40599;SDS011;26309;50.924;4.754;2023-10-13T06:49:48;20.27;;;8.18;;
40599;SDS011;26309;50.924;4.754;2023-10-13T06:52:16;17.05;;;7.35;;
40599;SDS011;26309;50.924;4.754;2023-10-13T06:54:43;20.23;;;7.50;;
40599;SDS011;26309;50.924;4.754;2023-10-13T06:57:09;20.73;;;7.63;;
40599;SDS011;26309;50.924;4.754;2023-10-13T06:59:40;24.05;;;7.82;;
40599;SDS011;26309;50.924;4.754;2023-10-13T07:02:06;25.90;;;8.00;;
40599;SDS011;26309;50.924;4.754;2023-10-13T07:04:35;16.83;;;6.97;;
40599;SDS011;26309;50.924;4.754;2023-10-13T07:07:04;15.02;;;7.10;;
40599;SDS011;26309;50.924;4.754;2023-10-13T07:09:31;13.95;;;7.13;;
40599;SDS011;26309;50.924;4.754;2023-10-13T07:11:58;21.45;;;7.45;;
40599;SDS011;26309;50.924;4.754;2023-10-13T07:14:26;15.75;;;6.82;;
40599;SDS011;26309;50.924;4.754;2023-10-13T07:16:56;16.90;;;6.90;;
40599;SDS011;26309;50.924;4.754;2023-10-13T07:19:25;16.55;;;7.32;;
40599;SDS011;26309;50.924;4.754;2023-10-13T07:21:54;16.60;;;7.05;;
40599;SDS011;26309;50.924;4.754;2023-10-13T07:24:25;22.08;;;7.65;;
40599;SDS011;26309;50.924;4.754;2023-10-13T07:26:56;16.75;;;6.68;;
40599;SDS011;26309;50.924;4.754;2023-10-13T07:29:28;15.63;;;7.32;;
40599;SDS011;26309;50.924;4.754;2023-10-13T07:31:55;21.45;;;7.30;;
40599;SDS011;26309;50.924;4.754;2023-10-13T07:34:21;14.18;;;6.78;;
40599;SDS011;26309;50.924;4.754;2023-10-13T07:36:54;21.00;;;7.25;;
40599;SDS011;26309;50.924;4.754;2023-10-13T07:39:33;22.30;;;7.05;;
40599;SDS011;26309;50.924;4.754;2023-10-13T07:41:59;15.57;;;7.35;;
40599;SDS011;26309;50.924;4.754;2023-10-13T07:44:30;17.42;;;6.47;;
40599;SDS011;26309;50.924;4.754;2023-10-13T07:47:02;16.17;;;6.88;;
40599;SDS011;26309;50.924;4.754;2023-10-13T07:49:30;21.25;;;7.05;;
40599;SDS011;26309;50.924;4.754;2023-10-13T07:51:58;14.27;;;6.75;;
40599;SDS011;26309;50.924;4.754;2023-10-13T07:54:28;16.02;;;7.18;;
40599;SDS011;26309;50.924;4.754;2023-10-13T07:56:54;15.52;;;7.07;;
40599;SDS011;26309;50.924;4.754;2023-10-13T07:59:20;14.77;;;6.70;;
40599;SDS011;26309;50.924;4.754;2023-10-13T08:01:49;16.23;;;6.60;;
40599;SDS011;26309;50.924;4.754;2023-10-13T08:04:37;14.85;;;7.03;;
40599;SDS011;26309;50.924;4.754;2023-10-13T08:07:03;16.55;;;7.80;;
40599;SDS011;26309;50.924;4.754;2023-10-13T08:09:39;16.45;;;7.20;;
40599;SDS011;26309;50.924;4.754;2023-10-13T08:12:06;16.30;;;7.63;;
40599;SDS011;26309;50.924;4.754;2023-10-13T08:14:37;18.52;;;7.35;;
40599;SDS011;26309;50.924;4.754;2023-10-13T08:17:08;18.58;;;7.40;;
40599;SDS011;26309;50.924;4.754;2023-10-13T08:19:36;17.85;;;7.65;;
40599;SDS011;26309;50.924;4.754;2023-10-13T08:22:05;17.52;;;6.95;;
40599;SDS011;26309;50.924;4.754;2023-10-13T08:24:51;13.05;;;7.15;;
40599;SDS011;26309;50.924;4.754;2023-10-13T08:27:20;14.32;;;7.13;;
40599;SDS011;26309;50.924;4.754;2023-10-13T08:30:15;14.18;;;6.72;;
40599;SDS011;26309;50.924;4.754;2023-10-13T08:33:02;19.83;;;7.47;;
40599;SDS011;26309;50.924;4.754;2023-10-13T09:07:29;13.98;;;7.60;;
40599;SDS011;26309;50.924;4.754;2023-10-13T09:09:57;18.58;;;7.18;;
40599;SDS011;26309;50.924;4.754;2023-10-13T09:12:40;22.15;;;7.72;;
40599;SDS011;26309;50.924;4.754;2023-10-13T09:15:30;17.60;;;7.75;;
40599;SDS011;26309;50.924;4.754;2023-10-13T09:18:27;13.77;;;7.30;;
40599;SDS011;26309;50.924;4.754;2023-10-13T09:21:11;13.80;;;7.53;;
40599;SDS011;26309;50.924;4.754;2023-10-13T09:23:56;16.80;;;7.35;;
40599;SDS011;26309;50.924;4.754;2023-10-13T09:26:41;21.88;;;7.35;;
40599;SDS011;26309;50.924;4.754;2023-10-13T09:29:17;14.93;;;7.90;;
40599;SDS011;26309;50.924;4.754;2023-10-13T09:36:58;14.65;;;7.18;;
40599;SDS011;26309;50.924;4.754;2023-10-13T09:39:25;20.38;;;7.65;;
40599;SDS011;26309;50.924;4.754;2023-10-13T09:42:21;15.20;;;7.43;;
40599;SDS011;26309;50.924;4.754;2023-10-13T09:44:48;19.38;;;7.93;;
40599;SDS011;26309;50.924;4.754;2023-10-13T09:47:21;13.10;;;6.97;;
40599;SDS011;26309;50.924;4.754;2023-10-13T09:52:50;14.32;;;7.22;;
40599;SDS011;26309;50.924;4.754;2023-10-13T09:55:27;17.30;;;7.78;;
40599;SDS011;26309;50.924;4.754;2023-10-13T09:58:06;15.90;;;8.00;;
40599;SDS011;26309;50.924;4.754;2023-10-13T10:00:43;15.07;;;7.82;;
40599;SDS011;26309;50.924;4.754;2023-10-13T10:03:13;12.40;;;7.40;;
40599;SDS011;26309;50.924;4.754;2023-10-13T10:06:05;15.25;;;7.28;;
40599;SDS011;26309;50.924;4.754;2023-10-13T10:08:33;21.00;;;7.53;;
40599;SDS011;26309;50.924;4.754;2023-10-13T10:13:53;16.58;;;7.47;;
40599;SDS011;26309;50.924;4.754;2023-10-13T10:19:25;14.43;;;6.97;;
40599;SDS011;26309;50.924;4.754;2023-10-13T10:22:03;21.05;;;8.13;;
40599;SDS011;26309;50.924;4.754;2023-10-13T10:24:41;18.75;;;6.90;;
40599;SDS011;26309;50.924;4.754;2023-10-13T10:27:08;17.17;;;7.63;;
40599;SDS011;26309;50.924;4.754;2023-10-13T10:29:39;14.05;;;7.05;;
40599;SDS011;26309;50.924;4.754;2023-10-13T10:32:17;19.38;;;6.95;;
40599;SDS011;26309;50.924;4.754;2023-10-13T10:34:44;21.85;;;7.43;;
40599;SDS011;26309;50.924;4.754;2023-10-13T10:37:10;16.27;;;7.05;;
40599;SDS011;26309;50.924;4.754;2023-10-13T10:39:38;23.23;;;7.00;;
40599;SDS011;26309;50.924;4.754;2023-10-13T10:42:14;21.63;;;7.53;;
40599;SDS011;26309;50.924;4.754;2023-10-13T10:44:41;19.42;;;6.72;;
40599;SDS011;26309;50.924;4.754;2023-10-13T10:47:13;16.38;;;6.65;;
40599;SDS011;26309;50.924;4.754;2023-10-13T11:16:57;21.98;;;6.90;;
40599;SDS011;26309;50.924;4.754;2023-10-13T11:19:36;20.30;;;7.38;;
40599;SDS011;26309;50.924;4.754;2023-10-13T11:22:13;22.75;;;7.13;;
40599;SDS011;26309;50.924;4.754;2023-10-13T11:25:02;20.02;;;7.15;;
40599;SDS011;26309;50.924;4.754;2023-10-13T11:27:37;20.20;;;7.22;;
40599;SDS011;26309;50.924;4.754;2023-10-13T11:30:17;23.65;;;6.95;;
40599;SDS011;26309;50.924;4.754;2023-10-13T11:33:09;22.77;;;7.68;;
40599;SDS011;26309;50.924;4.754;2023-10-13T11:40:46;29.17;;;8.02;;
40599;SDS011;26309;50.924;4.754;2023-10-13T11:46:16;23.65;;;7.15;;
40599;SDS011;26309;50.924;4.754;2023-10-13T11:49:11;24.75;;;7.95;;
40599;SDS011;26309;50.924;4.754;2023-10-13T11:51:41;22.75;;;6.93;;
40599;SDS011;26309;50.924;4.754;2023-10-13T11:54:20;24.98;;;7.53;;
40599;SDS011;26309;50.924;4.754;2023-10-13T11:56:48;22.65;;;7.35;;
40599;SDS011;26309;50.924;4.754;2023-10-13T11:59:15;25.40;;;7.00;;
40599;SDS011;26309;50.924;4.754;2023-10-13T12:01:49;18.67;;;7.03;;
40599;SDS011;26309;50.924;4.754;2023-10-13T12:04:35;21.58;;;6.70;;
40599;SDS011;26309;50.924;4.754;2023-10-13T12:07:24;19.35;;;7.32;;
40599;SDS011;26309;50.924;4.754;2023-10-13T12:12:44;18.23;;;6.70;;
40599;SDS011;26309;50.924;4.754;2023-10-13T12:15:11;20.45;;;7.30;;
40599;SDS011;26309;50.924;4.754;2023-10-13T12:17:50;22.75;;;6.90;;
40599;SDS011;26309;50.924;4.754;2023-10-13T12:20:16;16.65;;;7.00;;
40599;SDS011;26309;50.924;4.754;2023-10-13T12:22:57;22.73;;;7.57;;
40599;SDS011;26309;50.924;4.754;2023-10-13T12:25:35;19.25;;;6.82;;
40599;SDS011;26309;50.924;4.754;2023-10-13T12:28:12;21.08;;;7.07;;
40599;SDS011;26309;50.924;4.754;2023-10-13T12:30:44;20.45;;;6.72;;
40599;SDS011;26309;50.924;4.754;2023-10-13T12:33:14;23.38;;;6.80;;
40599;SDS011;26309;50.924;4.754;2023-10-13T12:35:50;20.67;;;6.82;;
40599;SDS011;26309;50.924;4.754;2023-10-13T12:38:48;17.13;;;7.03;;
40599;SDS011;26309;50.924;4.754;2023-10-13T12:41:18;17.85;;;6.70;;
40599;SDS011;26309;50.924;4.754;2023-10-13T12:44:04;21.80;;;7.00;;
40599;SDS011;26309;50.924;4.754;2023-10-13T12:46:49;18.67;;;6.85;;
40599;SDS011;26309;50.924;4.754;2023-10-13T12:49:35;18.33;;;7.22;;
40599;SDS011;26309;50.924;4.754;2023-10-13T12:52:08;20.65;;;7.32;;
40599;SDS011;26309;50.924;4.754;2023-10-13T12:54:53;20.83;;;7.10;;
40599;SDS011;26309;50.924;4.754;2023-10-13T12:57:22;20.55;;;7.00;;
40599;SDS011;26309;50.924;4.754;2023-10-13T12:59:55;18.77;;;6.25;;
40599;SDS011;26309;50.924;4.754;2023-10-13T13:02:26;19.38;;;6.55;;
40599;SDS011;26309;50.924;4.754;2023-10-13T13:04:53;19.48;;;6.53;;
40599;SDS011;26309;50.924;4.754;2023-10-13T13:07:27;19.20;;;6.57;;
40599;SDS011;26309;50.924;4.754;2023-10-13T13:09:56;19.98;;;6.70;;
40599;SDS011;26309;50.924;4.754;2023-10-13T13:12:25;18.88;;;6.57;;
40599;SDS011;26309;50.924;4.754;2023-10-13T13:14:53;22.00;;;6.93;;
40599;SDS011;26309;50.924;4.754;2023-10-13T13:17:25;21.38;;;6.28;;
40599;SDS011;26309;50.924;4.754;2023-10-13T13:19:51;16.17;;;6.25;;
40599;SDS011;26309;50.924;4.754;2023-10-13T13:22:17;21.20;;;6.20;;
40599;SDS011;26309;50.924;4.754;2023-10-13T13:24:44;14.15;;;6.43;;
40599;SDS011;26309;50.924;4.754;2023-10-13T13:27:13;18.30;;;6.00;;
40599;SDS011;26309;50.924;4.754;2023-10-13T13:29:43;14.88;;;6.78;;
40599;SDS011;26309;50.924;4.754;2023-10-13T13:32:09;17.30;;;7.07;;
40599;SDS011;26309;50.924;4.754;2023-10-13T13:34:49;15.60;;;6.50;;
40599;SDS011;26309;50.924;4.754;2023-10-13T13:37:31;14.85;;;6.13;;
40599;SDS011;26309;50.924;4.754;2023-10-13T13:39:57;17.88;;;5.90;;
40599;SDS011;26309;50.924;4.754;2023-10-13T13:42:40;17.08;;;6.07;;
40599;SDS011;26309;50.924;4.754;2023-10-13T13:45:14;13.18;;;6.18;;
40599;SDS011;26309;50.924;4.754;2023-10-13T13:53:21;20.58;;;6.30;;
40599;SDS011;26309;50.924;4.754;2023-10-13T13:55:53;11.90;;;5.80;;
40599;SDS011;26309;50.924;4.754;2023-10-13T13:58:25;19.52;;;5.85;;
40599;SDS011;26309;50.924;4.754;2023-10-13T14:00:50;14.32;;;6.05;;
40599;SDS011;26309;50.924;4.754;2023-10-13T14:03:16;13.15;;;6.28;;
40599;SDS011;26309;50.924;4.754;2023-10-13T14:08:32;16.88;;;5.78;;
40599;SDS011;26309;50.924;4.754;2023-10-13T14:10:59;16.65;;;6.18;;
40599;SDS011;26309;50.924;4.754;2023-10-13T14:13:38;17.42;;;6.40;;
40599;SDS011;26309;50.924;4.754;2023-10-13T14:16:21;16.67;;;6.35;;
40599;SDS011;26309;50.924;4.754;2023-10-13T14:18:48;14.23;;;6.70;;
40599;SDS011;26309;50.924;4.754;2023-10-13T14:21:16;14.48;;;6.00;;
40599;SDS011;26309;50.924;4.754;2023-10-13T14:23:46;15.35;;;5.82;;
40599;SDS011;26309;50.924;4.754;2023-10-13T14:26:13;15.93;;;6.03;;
40599;SDS011;26309;50.924;4.754;2023-10-13T14:28:40;11.43;;;5.78;;
40599;SDS011;26309;50.924;4.754;2023-10-13T14:31:18;12.05;;;5.57;;
40599;SDS011;26309;50.924;4.754;2023-10-13T14:33:46;14.65;;;5.80;;
40599;SDS011;26309;50.924;4.754;2023-10-13T14:36:13;16.55;;;6.85;;
40599;SDS011;26309;50.924;4.754;2023-10-13T14:38:42;15.60;;;7.22;;
40599;SDS011;26309;50.924;4.754;2023-10-13T14:41:09;16.83;;;6.15;;
40599;SDS011;26309;50.924;4.754;2023-10-13T14:43:35;15.50;;;7.45;;
40599;SDS011;26309;50.924;4.754;2023-10-13T14:46:01;17.35;;;7.75;;
40599;SDS011;26309;50.924;4.754;2023-10-13T14:48:29;13.88;;;6.05;;
40599;SDS011;26309;50.924;4.754;2023-10-13T14:50:55;13.05;;;5.82;;
40599;SDS011;26309;50.924;4.754;2023-10-13T14:53:21;15.20;;;5.90;;
40599;SDS011;26309;50.924;4.754;2023-10-13T14:55:47;17.15;;;6.38;;
40599;SDS011;26309;50.924;4.754;2023-10-13T14:58:16;11.85;;;5.47;;
40599;SDS011;26309;50.924;4.754;2023-10-13T15:00:42;12.23;;;5.80;;
40599;SDS011;26309;50.924;4.754;2023-10-13T15:03:10;15.20;;;5.45;;
40599;SDS011;26309;50.924;4.754;2023-10-13T15:05:40;21.42;;;5.45;;
40599;SDS011;26309;50.924;4.754;2023-10-13T15:08:09;13.63;;;6.28;;
40599;SDS011;26309;50.924;4.754;2023-10-13T15:10:35;16.23;;;6.03;;
40599;SDS011;26309;50.924;4.754;2023-10-13T15:13:03;17.95;;;5.95;;
40599;SDS011;26309;50.924;4.754;2023-10-13T15:15:30;13.63;;;6.22;;
40599;SDS011;26309;50.924;4.754;2023-10-13T15:25:29;14.35;;;7.20;;
40599;SDS011;26309;50.924;4.754;2023-10-13T15:28:04;12.48;;;6.20;;
40599;SDS011;26309;50.924;4.754;2023-10-13T15:30:34;14.93;;;7.22;;
40599;SDS011;26309;50.924;4.754;2023-10-13T15:33:12;14.85;;;6.57;;
40599;SDS011;26309;50.924;4.754;2023-10-13T15:35:39;15.80;;;6.13;;
40599;SDS011;26309;50.924;4.754;2023-10-13T15:45:26;13.13;;;6.65;;
40599;SDS011;26309;50.924;4.754;2023-10-13T15:48:08;16.20;;;6.88;;
40599;SDS011;26309;50.924;4.754;2023-10-13T15:50:40;13.90;;;7.00;;
40599;SDS011;26309;50.924;4.754;2023-10-13T15:53:09;13.02;;;6.70;;
40599;SDS011;26309;50.924;4.754;2023-10-13T15:55:38;21.17;;;7.18;;
40599;SDS011;26309;50.924;4.754;2023-10-13T15:58:05;11.88;;;5.78;;
40599;SDS011;26309;50.924;4.754;2023-10-13T16:00:37;12.75;;;7.15;;
40599;SDS011;26309;50.924;4.754;2023-10-13T16:03:03;13.52;;;6.88;;
40599;SDS011;26309;50.924;4.754;2023-10-13T16:05:36;16.70;;;7.30;;
40599;SDS011;26309;50.924;4.754;2023-10-13T16:08:03;22.45;;;7.18;;
40599;SDS011;26309;50.924;4.754;2023-10-13T16:10:31;14.25;;;6.82;;
40599;SDS011;26309;50.924;4.754;2023-10-13T16:12:58;13.68;;;6.70;;
40599;SDS011;26309;50.924;4.754;2023-10-13T16:15:24;15.93;;;6.40;;
40599;SDS011;26309;50.924;4.754;2023-10-13T16:17:50;21.42;;;6.95;;
40599;SDS011;26309;50.924;4.754;2023-10-13T16:20:18;12.95;;;6.47;;
40599;SDS011;26309;50.924;4.754;2023-10-13T16:22:46;12.80;;;7.10;;
40599;SDS011;26309;50.924;4.754;2023-10-13T16:25:14;9.77;;;6.13;;
40599;SDS011;26309;50.924;4.754;2023-10-13T16:27:41;13.63;;;6.72;;
40599;SDS011;26309;50.924;4.754;2023-10-13T16:30:12;11.02;;;6.45;;
40599;SDS011;26309;50.924;4.754;2023-10-13T16:32:45;15.13;;;6.65;;
40599;SDS011;26309;50.924;4.754;2023-10-13T16:35:17;14.13;;;6.85;;
40599;SDS011;26309;50.924;4.754;2023-10-13T16:37:44;15.27;;;6.78;;
40599;SDS011;26309;50.924;4.754;2023-10-13T16:40:15;16.65;;;6.72;;
40599;SDS011;26309;50.924;4.754;2023-10-13T16:42:52;16.95;;;7.18;;
40599;SDS011;26309;50.924;4.754;2023-10-13T16:45:19;12.88;;;6.68;;
40599;SDS011;26309;50.924;4.754;2023-10-13T16:47:51;13.10;;;6.68;;
40599;SDS011;26309;50.924;4.754;2023-10-13T16:50:20;13.52;;;6.55;;
40599;SDS011;26309;50.924;4.754;2023-10-13T16:52:47;13.65;;;7.30;;
40599;SDS011;26309;50.924;4.754;2023-10-13T16:55:13;13.88;;;7.00;;
40599;SDS011;26309;50.924;4.754;2023-10-13T16:57:45;16.20;;;7.20;;
40599;SDS011;26309;50.924;4.754;2023-10-13T17:00:15;16.83;;;6.95;;